createdAt,value
2019-05-29T00:00:21.045Z,2.60
2019-05-29T00:02:50.309Z,2.83
2019-05-29T00:05:19.509Z,3.10
2019-05-29T00:07:48.589Z,3.20
2019-05-29T00:10:18.618Z,3.10
2019-05-29T00:12:47.843Z,2.98
2019-05-29T00:15:18.637Z,2.90
2019-05-29T00:17:48.068Z,2.80
2019-05-29T00:20:17.252Z,3.22
2019-05-29T00:22:46.477Z,3.50
2019-05-29T00:25:16.684Z,3.00
2019-05-29T00:27:46.650Z,3.43
2019-05-29T00:30:16.958Z,3.30
2019-05-29T00:32:46.366Z,3.10
2019-05-29T00:35:16.401Z,3.08
2019-05-29T00:37:45.755Z,3.10
2019-05-29T00:40:17.142Z,3.05
2019-05-29T00:42:46.359Z,3.02
2019-05-29T00:45:15.943Z,3.45
2019-05-29T00:47:45.044Z,3.60
2019-05-29T00:50:14.605Z,3.40
2019-05-29T00:52:43.799Z,3.42
2019-05-29T00:55:14.683Z,3.90
2019-05-29T00:57:43.841Z,3.65
2019-05-29T01:00:13.508Z,3.70
2019-05-29T01:02:42.935Z,3.37
2019-05-29T01:05:12.182Z,3.25
2019-05-29T01:07:41.326Z,3.62
2019-05-29T01:10:12.986Z,3.70
2019-05-29T01:12:42.214Z,3.62
2019-05-29T01:15:11.652Z,3.75
2019-05-29T01:17:42.208Z,3.80
2019-05-29T01:20:11.927Z,3.30
2019-05-29T01:22:41.195Z,3.62
2019-05-29T01:25:10.789Z,3.65
2019-05-29T01:27:39.889Z,4.40
2019-05-29T01:30:09.267Z,3.80
2019-05-29T01:32:38.501Z,4.17
2019-05-29T01:35:07.999Z,3.55
2019-05-29T01:37:37.167Z,3.83
2019-05-29T01:40:19.271Z,3.52
2019-05-29T01:42:38.719Z,3.62
2019-05-29T01:45:08.721Z,3.92
2019-05-29T01:47:38.119Z,4.25
2019-05-29T01:50:07.496Z,4.03
2019-05-29T01:52:36.751Z,3.65
2019-05-29T01:55:07.359Z,4.15
2019-05-29T01:57:36.546Z,3.95
2019-05-29T02:00:07.752Z,4.22
2019-05-29T02:05:07.015Z,3.95
2019-05-29T02:07:36.307Z,3.75
2019-05-29T02:10:07.091Z,4.50
2019-05-29T02:12:36.274Z,3.72
2019-05-29T02:15:23.111Z,4.30
2019-05-29T02:17:39.624Z,4.28
2019-05-29T02:20:09.338Z,4.20
2019-05-29T02:22:38.569Z,4.15
2019-05-29T02:25:08.515Z,4.10
2019-05-29T02:27:37.770Z,3.75
2019-05-29T02:30:08.680Z,4.03
2019-05-29T02:32:38.020Z,4.37
2019-05-29T02:35:07.719Z,4.50
2019-05-29T02:37:38.105Z,4.67
2019-05-29T02:40:09.011Z,4.58
2019-05-29T02:42:38.278Z,4.87
2019-05-29T02:45:08.644Z,4.62
2019-05-29T02:47:38.629Z,5.05
2019-05-29T02:50:08.734Z,5.85
2019-05-29T02:52:38.012Z,5.72
2019-05-29T02:55:08.276Z,5.80
2019-05-29T02:57:37.506Z,5.10
2019-05-29T03:00:10.896Z,4.90
2019-05-29T03:02:40.148Z,4.78
2019-05-29T03:05:10.021Z,5.12
2019-05-29T03:07:40.904Z,5.15
2019-05-29T03:10:10.778Z,5.28
2019-05-29T03:12:40.999Z,5.03
2019-05-29T03:15:10.753Z,5.10
2019-05-29T03:17:39.844Z,4.92
2019-05-29T03:20:09.690Z,4.95
2019-05-29T03:22:38.881Z,5.22
2019-05-29T03:25:08.058Z,5.00
2019-05-29T03:27:38.362Z,4.90
2019-05-29T03:30:09.888Z,4.78
2019-05-29T03:35:09.290Z,4.62
2019-05-29T03:37:38.907Z,4.87
2019-05-29T03:40:08.592Z,5.25
2019-05-29T03:42:39.079Z,4.83
2019-05-29T03:45:08.708Z,4.50
2019-05-29T03:47:38.097Z,5.20
2019-05-29T03:50:07.652Z,4.67
2019-05-29T03:52:38.815Z,5.20
2019-05-29T03:55:08.763Z,7.05
2019-05-29T03:57:38.344Z,6.92
2019-05-29T04:00:08.207Z,5.80
2019-05-29T04:02:38.146Z,5.22
2019-05-29T04:05:09.666Z,5.40
2019-05-29T04:07:38.904Z,5.83
2019-05-29T04:10:11.917Z,5.22
2019-05-29T04:12:40.724Z,5.30
2019-05-29T04:15:10.640Z,5.70
2019-05-29T04:17:39.916Z,4.55
2019-05-29T04:20:09.514Z,5.28
2019-05-29T04:22:45.412Z,5.10
2019-05-29T04:25:15.006Z,6.45
2019-05-29T04:27:45.796Z,5.50
2019-05-29T04:30:15.174Z,5.25
2019-05-29T04:32:44.339Z,4.95
2019-05-29T04:35:13.616Z,5.42
2019-05-29T04:37:42.785Z,5.62
2019-05-29T04:40:12.079Z,5.78
2019-05-29T04:42:41.282Z,5.12
2019-05-29T04:45:10.763Z,4.97
2019-05-29T04:47:39.992Z,5.30
2019-05-29T04:50:10.345Z,5.72
2019-05-29T04:52:40.396Z,5.57
2019-05-29T04:55:10.114Z,6.08
2019-05-29T04:57:39.421Z,5.90
2019-05-29T05:00:09.321Z,5.50
2019-05-29T05:02:39.394Z,5.85
2019-05-29T05:05:09.600Z,6.20
2019-05-29T05:07:39.659Z,5.70
2019-05-29T05:10:09.362Z,6.03
2019-05-29T05:12:40.137Z,6.00
2019-05-29T05:15:09.767Z,5.83
2019-05-29T05:17:39.981Z,6.03
2019-05-29T05:20:09.329Z,5.70
2019-05-29T05:22:38.629Z,5.97
2019-05-29T05:25:07.964Z,6.40
2019-05-29T05:27:38.347Z,6.10
2019-05-29T05:30:09.025Z,6.28
2019-05-29T05:32:38.980Z,8.03
2019-05-29T05:35:08.323Z,6.83
2019-05-29T05:37:37.458Z,5.67
2019-05-29T05:40:07.170Z,6.05
2019-05-29T05:42:37.149Z,6.15
2019-05-29T05:45:07.769Z,6.10
2019-05-29T05:47:50.072Z,6.22
2019-05-29T05:50:08.047Z,6.30
2019-05-29T05:52:37.515Z,6.45
2019-05-29T05:55:06.973Z,6.45
2019-05-29T05:57:36.162Z,6.60
2019-05-29T06:00:10.386Z,6.50
2019-05-29T06:02:40.251Z,6.62
2019-05-29T06:05:09.733Z,7.65
2019-05-29T06:07:40.251Z,7.53
2019-05-29T06:10:10.547Z,6.87
2019-05-29T06:12:40.608Z,7.50
2019-05-29T06:15:10.084Z,7.40
2019-05-29T06:17:40.644Z,7.70
2019-05-29T06:20:10.188Z,8.03
2019-05-29T06:22:39.461Z,7.87
2019-05-29T06:25:08.880Z,7.22
2019-05-29T06:27:39.202Z,7.62
2019-05-29T06:30:09.703Z,7.60
2019-05-29T06:32:39.481Z,7.90
2019-05-29T06:35:09.125Z,7.75
2019-05-29T06:37:39.471Z,7.62
2019-05-29T06:40:10.091Z,8.40
2019-05-29T06:42:39.833Z,8.00
2019-05-29T06:45:11.700Z,7.80
2019-05-29T06:47:42.623Z,7.30
2019-05-29T06:52:41.419Z,8.43
2019-05-29T06:55:10.804Z,7.87
2019-05-29T06:57:40.322Z,8.40
2019-05-29T07:00:09.927Z,7.75
2019-05-29T07:02:40.394Z,7.97
2019-05-29T07:05:10.100Z,7.62
2019-05-29T07:07:40.319Z,7.75
2019-05-29T07:10:10.149Z,8.43
2019-05-29T07:12:40.317Z,8.03
2019-05-29T07:15:10.516Z,8.28
2019-05-29T07:17:40.519Z,12.47
2019-05-29T07:20:09.900Z,8.73
2019-05-29T07:22:40.769Z,8.30
2019-05-29T07:25:12.967Z,8.65
2019-05-29T07:27:42.923Z,9.28
2019-05-29T07:30:13.654Z,8.85
2019-05-29T07:32:49.591Z,8.40
2019-05-29T07:37:43.727Z,9.35
2019-05-29T07:40:13.791Z,9.80
2019-05-29T07:42:49.799Z,10.00
2019-05-29T07:45:14.541Z,10.35
2019-05-29T07:47:44.668Z,10.93
2019-05-29T07:50:14.468Z,10.95
2019-05-29T07:52:45.350Z,9.78
2019-05-29T07:57:44.894Z,11.80
2019-05-29T08:00:14.391Z,11.83
2019-05-29T08:02:43.713Z,12.45
2019-05-29T08:05:13.659Z,12.58
2019-05-29T08:07:43.417Z,13.62
2019-05-29T08:10:13.775Z,14.10
2019-05-29T08:12:49.981Z,14.20
2019-05-29T08:15:14.510Z,13.43
2019-05-29T08:17:46.172Z,13.62
2019-05-29T08:22:53.221Z,13.30
2019-05-29T08:25:22.660Z,12.07
2019-05-29T08:27:52.092Z,13.28
2019-05-29T08:30:22.432Z,11.73
2019-05-29T08:32:51.901Z,12.35
2019-05-29T08:35:22.028Z,12.10
2019-05-29T08:37:51.492Z,10.00
2019-05-29T08:40:21.172Z,10.72
2019-05-29T08:42:51.466Z,11.38
2019-05-29T08:45:21.136Z,11.10
2019-05-29T08:47:50.273Z,10.82
2019-05-29T08:50:19.834Z,11.85
2019-05-29T08:52:50.068Z,11.35
2019-05-29T08:55:19.581Z,11.80
2019-05-29T08:57:48.888Z,11.35
2019-05-29T09:00:18.514Z,11.50
2019-05-29T09:02:49.259Z,10.30
2019-05-29T09:05:19.207Z,11.53
2019-05-29T09:07:49.924Z,13.40
2019-05-29T09:10:19.378Z,12.85
2019-05-29T09:12:57.229Z,12.80
2019-05-29T09:17:49.789Z,11.78
2019-05-29T09:20:31.981Z,13.68
2019-05-29T09:22:51.361Z,14.10
2019-05-29T09:25:21.187Z,16.15
2019-05-29T09:27:50.560Z,13.93
2019-05-29T09:30:20.113Z,12.98
2019-05-29T09:32:52.569Z,13.80
2019-05-29T09:35:21.988Z,13.43
2019-05-29T09:37:54.229Z,13.58
2019-05-29T09:40:24.944Z,13.38
2019-05-29T09:42:54.161Z,13.13
2019-05-29T09:45:23.517Z,12.47
2019-05-29T09:47:52.752Z,12.18
2019-05-29T09:50:25.467Z,12.50
2019-05-29T09:52:55.306Z,12.73
2019-05-29T09:55:25.252Z,12.78
2019-05-29T09:57:55.413Z,12.55
2019-05-29T10:00:25.409Z,12.78
2019-05-29T10:02:55.593Z,12.45
2019-05-29T10:05:24.985Z,12.65
2019-05-29T10:07:58.133Z,11.75
2019-05-29T10:10:27.958Z,11.45
2019-05-29T10:12:58.110Z,11.50
2019-05-29T10:15:27.575Z,11.07
2019-05-29T10:17:56.993Z,12.15
2019-05-29T10:20:26.808Z,10.03
2019-05-29T10:22:57.016Z,11.57
2019-05-29T10:25:26.533Z,11.40
2019-05-29T10:27:55.686Z,12.13
2019-05-29T10:30:25.147Z,12.55
2019-05-29T10:32:54.581Z,14.07
2019-05-29T10:35:23.934Z,12.80
2019-05-29T10:37:53.142Z,11.43
2019-05-29T10:40:22.387Z,11.25
2019-05-29T10:42:51.764Z,11.65
2019-05-29T10:45:21.457Z,13.88
2019-05-29T10:47:52.196Z,13.22
2019-05-29T10:50:22.557Z,11.60
2019-05-29T10:52:52.147Z,11.23
2019-05-29T10:55:23.227Z,11.90
2019-05-29T10:57:53.346Z,11.93
2019-05-29T11:00:23.169Z,12.50
2019-05-29T11:02:55.139Z,11.95
2019-05-29T11:05:24.330Z,13.18
2019-05-29T11:07:53.991Z,12.60
2019-05-29T11:10:23.735Z,12.60
2019-05-29T11:12:54.559Z,12.28
2019-05-29T11:15:24.420Z,12.13
2019-05-29T11:17:53.581Z,12.03
2019-05-29T11:20:23.271Z,14.05
2019-05-29T11:22:53.568Z,11.45
2019-05-29T11:25:27.593Z,9.48
2019-05-29T11:27:54.828Z,9.23
2019-05-29T11:30:24.754Z,8.00
2019-05-29T11:32:55.599Z,8.45
2019-05-29T11:35:24.786Z,8.33
2019-05-29T11:37:54.646Z,8.80
2019-05-29T11:40:24.044Z,13.07
2019-05-29T11:42:53.251Z,8.55
2019-05-29T11:45:23.982Z,9.33
2019-05-29T11:47:53.996Z,8.03
2019-05-29T11:52:54.440Z,9.08
2019-05-29T11:55:23.826Z,7.45
2019-05-29T11:57:53.790Z,7.75
2019-05-29T12:00:24.710Z,8.25
2019-05-29T12:02:55.676Z,7.95
2019-05-29T12:05:25.112Z,6.55
2019-05-29T12:07:55.481Z,6.72
2019-05-29T12:10:25.755Z,7.40
2019-05-29T12:12:55.470Z,7.20
2019-05-29T12:15:26.807Z,7.03
2019-05-29T12:18:18.446Z,7.28
2019-05-29T12:20:28.812Z,7.80
2019-05-29T12:23:19.791Z,5.62
2019-05-29T12:27:59.007Z,5.85
2019-05-29T12:30:28.642Z,6.65
2019-05-29T12:32:59.059Z,6.95
2019-05-29T12:35:28.410Z,6.17
2019-05-29T12:37:57.621Z,7.12
2019-05-29T12:40:26.839Z,6.75
2019-05-29T12:42:57.389Z,9.73
2019-05-29T12:45:26.767Z,6.58
2019-05-29T12:47:56.501Z,6.05
2019-05-29T12:52:55.839Z,5.37
2019-05-29T12:55:25.431Z,5.25
2019-05-29T12:57:55.788Z,6.12
2019-05-29T13:00:25.965Z,6.20
2019-05-29T13:02:56.244Z,7.20
2019-05-29T13:05:25.563Z,6.40
2019-05-29T13:07:54.865Z,7.62
2019-05-29T13:10:30.771Z,6.90
2019-05-29T13:13:02.471Z,6.85
2019-05-29T13:15:27.129Z,6.53
2019-05-29T13:18:02.466Z,6.55
2019-05-29T13:20:27.272Z,6.85
2019-05-29T13:22:57.696Z,10.35
2019-05-29T13:25:27.075Z,6.78
2019-05-29T13:27:58.939Z,6.65
2019-05-29T13:30:27.503Z,6.15
2019-05-29T13:33:01.093Z,5.75
2019-05-29T13:35:27.553Z,5.40
2019-05-29T13:37:56.927Z,5.08
2019-05-29T13:40:26.671Z,4.80
2019-05-29T13:42:56.258Z,4.62
2019-05-29T13:45:25.742Z,7.35
2019-05-29T13:47:54.975Z,5.60
2019-05-29T13:50:24.306Z,5.22
2019-05-29T13:52:53.462Z,4.92
2019-05-29T13:55:22.759Z,5.10
2019-05-29T13:57:51.968Z,5.15
2019-05-29T14:00:36.619Z,4.85
2019-05-29T14:02:52.149Z,4.33
2019-05-29T14:05:22.087Z,5.17
2019-05-29T14:07:51.228Z,5.20
2019-05-29T14:10:20.683Z,6.12
2019-05-29T14:12:50.011Z,4.97
2019-05-29T14:15:19.790Z,5.33
2019-05-29T14:17:48.997Z,5.22
2019-05-29T14:20:18.279Z,4.72
2019-05-29T14:22:47.553Z,4.83
2019-05-29T14:25:16.961Z,4.90
2019-05-29T14:27:46.081Z,4.60
2019-05-29T14:30:16.223Z,5.15
2019-05-29T14:32:45.557Z,5.25
2019-05-29T14:35:15.990Z,4.22
2019-05-29T14:37:45.106Z,4.83
2019-05-29T14:40:14.599Z,4.45
2019-05-29T14:42:43.904Z,3.77
2019-05-29T14:45:13.420Z,4.22
2019-05-29T14:47:42.724Z,4.87
2019-05-29T14:50:13.592Z,4.40
2019-05-29T14:52:42.911Z,4.28
2019-05-29T14:55:20.389Z,4.20
2019-05-29T14:57:49.545Z,4.75
2019-05-29T15:00:25.289Z,4.30
2019-05-29T15:02:50.285Z,4.40
2019-05-29T15:05:20.086Z,4.80
2019-05-29T15:07:49.199Z,4.33
2019-05-29T15:10:26.757Z,4.10
2019-05-29T15:12:49.829Z,4.50
2019-05-29T15:15:21.220Z,4.47
2019-05-29T15:17:50.565Z,4.20
2019-05-29T15:20:20.053Z,4.60
2019-05-29T15:22:49.231Z,4.72
2019-05-29T15:25:23.953Z,4.55
2019-05-29T15:27:49.238Z,5.90
2019-05-29T15:30:23.005Z,4.10
2019-05-29T15:32:49.721Z,4.10
2019-05-29T15:35:20.137Z,4.28
2019-05-29T15:37:49.625Z,4.28
2019-05-29T15:40:18.950Z,4.20
2019-05-29T15:42:48.185Z,3.98
2019-05-29T15:45:18.188Z,4.08
2019-05-29T15:47:48.091Z,4.15
2019-05-29T15:50:18.094Z,3.87
2019-05-29T15:52:47.449Z,4.47
2019-05-29T15:55:28.382Z,3.83
2019-05-29T15:57:47.740Z,4.30
2019-05-29T16:00:17.829Z,4.10
2019-05-29T16:02:48.880Z,4.37
2019-05-29T16:05:19.876Z,4.00
2019-05-29T16:07:49.134Z,4.10
2019-05-29T16:10:20.758Z,4.60
2019-05-29T16:12:49.592Z,3.98
2019-05-29T16:15:19.562Z,4.15
2019-05-29T16:17:49.458Z,3.98
2019-05-29T16:20:19.011Z,4.35
2019-05-29T16:22:48.952Z,4.70
2019-05-29T16:25:35.547Z,6.50
2019-05-29T16:27:50.684Z,9.68
2019-05-29T16:30:21.888Z,4.28
2019-05-29T16:32:51.244Z,4.17
2019-05-29T16:35:20.846Z,5.50
2019-05-29T16:37:49.979Z,5.53
2019-05-29T16:40:19.958Z,4.47
2019-05-29T16:42:49.442Z,4.35
2019-05-29T16:45:20.089Z,4.28
2019-05-29T16:47:49.660Z,4.67
2019-05-29T16:50:21.138Z,5.20
2019-05-29T16:52:50.593Z,4.65
2019-05-29T16:55:20.929Z,6.28
2019-05-29T16:57:50.354Z,6.22
2019-05-29T17:00:21.523Z,6.20
2019-05-29T17:02:50.970Z,5.80
2019-05-29T17:05:20.697Z,9.33
2019-05-29T17:07:51.211Z,7.42
2019-05-29T17:10:35.375Z,7.97
2019-05-29T17:13:06.218Z,9.65
2019-05-29T17:15:35.623Z,7.50
2019-05-29T17:18:05.384Z,7.53
2019-05-29T17:20:42.455Z,7.30
2019-05-29T17:23:11.761Z,8.93
2019-05-29T17:25:41.235Z,7.40
2019-05-29T17:28:10.524Z,7.90
2019-05-29T17:30:40.017Z,10.58
2019-05-29T17:33:10.810Z,7.45
2019-05-29T17:35:40.274Z,11.10
2019-05-29T17:38:12.608Z,7.00
2019-05-29T17:40:42.529Z,7.10
2019-05-29T17:43:16.471Z,7.08
2019-05-29T17:45:46.024Z,5.78
2019-05-29T17:48:15.524Z,7.20
2019-05-29T17:50:44.780Z,9.50
2019-05-29T17:53:15.755Z,8.13
2019-05-29T17:58:15.735Z,7.22
2019-05-29T18:00:45.567Z,15.45
2019-05-29T18:03:15.961Z,12.70
2019-05-29T18:05:45.412Z,11.15
2019-05-29T18:08:16.921Z,10.68
2019-05-29T18:10:46.694Z,21.50
2019-05-29T18:13:16.893Z,13.18
2019-05-29T18:15:46.299Z,14.68
2019-05-29T18:18:15.536Z,13.00
2019-05-29T18:20:44.910Z,17.87
2019-05-29T18:23:14.102Z,28.55
2019-05-29T18:25:43.360Z,29.57
2019-05-29T18:28:12.607Z,21.90
2019-05-29T18:30:43.834Z,20.95
2019-05-29T18:33:13.438Z,16.30
2019-05-29T18:35:42.781Z,15.20
2019-05-29T18:38:13.627Z,17.75
2019-05-29T18:40:42.882Z,17.87
2019-05-29T18:43:12.078Z,19.27
2019-05-29T18:45:41.268Z,17.32
2019-05-29T18:48:10.513Z,18.05
2019-05-29T18:50:43.612Z,16.45
2019-05-29T18:53:10.807Z,15.50
2019-05-29T18:55:44.376Z,16.90
2019-05-29T18:58:13.527Z,16.20
2019-05-29T19:00:42.860Z,14.43
2019-05-29T19:03:12.068Z,14.90
2019-05-29T19:05:41.810Z,14.03
2019-05-29T19:08:11.126Z,14.80
2019-05-29T19:10:59.653Z,15.20
2019-05-29T19:13:29.895Z,15.23
2019-05-29T19:15:59.166Z,17.52
2019-05-29T19:18:30.221Z,23.47
2019-05-29T19:23:28.762Z,24.85
2019-05-29T19:25:58.435Z,19.92
2019-05-29T19:28:28.675Z,28.77
2019-05-29T19:30:58.110Z,28.32
2019-05-29T19:33:27.447Z,27.60
2019-05-29T19:35:56.567Z,29.02
2019-05-29T19:38:25.790Z,25.95
2019-05-29T19:40:55.088Z,27.37
2019-05-29T19:43:24.267Z,28.55
2019-05-29T19:45:53.523Z,27.30
2019-05-29T19:48:22.697Z,22.35
2019-05-29T19:50:51.984Z,23.52
2019-05-29T19:53:24.338Z,23.18
2019-05-29T19:55:51.949Z,23.57
2019-05-29T19:58:21.294Z,24.70
2019-05-29T20:00:50.585Z,25.60
2019-05-29T20:03:20.241Z,25.08
2019-05-29T20:05:49.798Z,24.80
2019-05-29T20:08:18.991Z,25.85
2019-05-29T20:10:48.189Z,23.80
2019-05-29T20:13:18.175Z,25.00
2019-05-29T20:15:47.438Z,25.30
2019-05-29T20:18:16.615Z,25.77
2019-05-29T20:20:45.792Z,28.60
2019-05-29T20:23:17.785Z,29.10
2019-05-29T20:25:47.046Z,28.45
2019-05-29T20:28:16.319Z,17.90
2019-05-29T20:30:45.553Z,17.92
2019-05-29T20:33:17.779Z,19.00
2019-05-29T20:35:47.096Z,20.50
2019-05-29T20:38:16.253Z,21.37
2019-05-29T20:40:45.630Z,23.62
2019-05-29T20:43:14.855Z,23.40
2019-05-29T20:45:43.989Z,24.52
2019-05-29T20:48:13.139Z,24.55
2019-05-29T20:50:43.344Z,24.15
2019-05-29T20:53:12.712Z,26.50
2019-05-29T20:55:41.960Z,33.50
2019-05-29T20:58:24.218Z,33.13
2019-05-29T21:00:43.646Z,29.80
2019-05-29T21:03:12.964Z,26.00
2019-05-29T21:05:42.868Z,22.52
2019-05-29T21:08:12.183Z,21.85
2019-05-29T21:10:42.030Z,17.92
2019-05-29T21:13:11.608Z,20.10
2019-05-29T21:15:41.834Z,19.95
2019-05-29T21:18:11.194Z,18.40
2019-05-29T21:20:40.512Z,16.70
2019-05-29T21:23:09.653Z,16.32
2019-05-29T21:25:38.887Z,14.60
2019-05-29T21:28:08.026Z,15.60
2019-05-29T21:30:37.518Z,14.45
2019-05-29T21:33:06.834Z,14.10
2019-05-29T21:35:36.302Z,14.20
2019-05-29T21:38:05.579Z,13.58
2019-05-29T21:40:36.246Z,12.45
2019-05-29T21:43:05.636Z,12.82
2019-05-29T21:45:34.886Z,12.20
2019-05-29T21:48:04.138Z,10.82
2019-05-29T21:50:33.399Z,10.88
2019-05-29T21:53:02.608Z,11.25
2019-05-29T21:55:31.809Z,11.73
2019-05-29T21:58:20.292Z,11.33
2019-05-29T22:00:51.193Z,11.68
2019-05-29T22:03:20.544Z,13.45
2019-05-29T22:05:50.684Z,13.25
2019-05-29T22:08:19.966Z,13.80
2019-05-29T22:10:49.250Z,15.03
2019-05-29T22:13:18.531Z,16.12
2019-05-29T22:15:48.404Z,17.07
2019-05-29T22:18:17.702Z,17.48
2019-05-29T22:20:46.974Z,16.37
2019-05-29T22:23:16.181Z,14.40
2019-05-29T22:25:45.399Z,13.98
2019-05-29T22:28:14.524Z,12.95
2019-05-29T22:30:43.812Z,12.65
2019-05-29T22:33:12.961Z,12.10
2019-05-29T22:35:42.142Z,11.97
2019-05-29T22:38:11.299Z,12.03
2019-05-29T22:40:40.535Z,12.90
2019-05-29T22:43:09.839Z,12.75
2019-05-29T22:45:39.134Z,13.58
2019-05-29T22:48:08.362Z,12.78
2019-05-29T22:50:37.625Z,13.10
2019-05-29T22:53:06.958Z,11.93
2019-05-29T22:55:36.105Z,11.97
2019-05-29T22:58:05.395Z,12.60
2019-05-29T23:00:34.610Z,10.98
2019-05-29T23:03:04.162Z,10.55
2019-05-29T23:05:33.328Z,9.93
2019-05-29T23:08:02.579Z,9.25
2019-05-29T23:10:31.900Z,8.90
2019-05-29T23:13:05.470Z,9.45
2019-05-29T23:15:32.019Z,9.23
2019-05-29T23:18:01.221Z,8.88
2019-05-29T23:20:30.419Z,8.53
2019-05-29T23:23:00.669Z,8.78
2019-05-29T23:25:30.031Z,8.68
2019-05-29T23:27:59.212Z,8.83
2019-05-29T23:30:30.656Z,8.38
2019-05-29T23:32:59.229Z,8.50
2019-05-29T23:35:28.524Z,8.25
2019-05-29T23:37:57.702Z,7.60
2019-05-29T23:40:27.017Z,8.38
2019-05-29T23:42:57.254Z,8.35
2019-05-29T23:45:26.688Z,8.00
2019-05-29T23:47:55.827Z,8.05
2019-05-29T23:50:25.080Z,7.78
2019-05-29T23:52:55.357Z,7.90
2019-05-29T23:55:24.748Z,8.05
2019-05-29T23:57:53.946Z,6.90
